createdAt,value
2017-07-04T00:00:39.986Z,2.77
2017-07-04T00:03:08.204Z,2.83
2017-07-04T00:05:35.646Z,3.27
2017-07-04T00:08:03.092Z,3.07
2017-07-04T00:10:30.539Z,2.70
2017-07-04T00:12:57.980Z,3.20
2017-07-04T00:15:26.198Z,3.10
2017-07-04T00:17:53.643Z,2.83
2017-07-04T00:20:21.100Z,2.90
2017-07-04T00:22:48.538Z,2.67
2017-07-04T00:25:15.987Z,3.00
2017-07-04T00:27:44.201Z,3.07
2017-07-04T00:30:11.655Z,3.13
2017-07-04T00:32:39.105Z,2.67
2017-07-04T00:35:06.539Z,2.70
2017-07-04T00:37:33.983Z,2.70
2017-07-04T00:40:01.419Z,2.97
2017-07-04T00:42:28.871Z,2.50
2017-07-04T00:44:56.312Z,2.50
2017-07-04T00:47:23.767Z,2.90
2017-07-04T00:49:51.228Z,2.50
2017-07-04T00:52:18.684Z,2.63
2017-07-04T00:54:46.131Z,2.67
2017-07-04T00:57:13.574Z,3.03
2017-07-04T00:59:41.026Z,3.00
2017-07-04T01:02:08.482Z,2.97
2017-07-04T01:04:35.919Z,3.17
2017-07-04T01:07:03.355Z,2.80
2017-07-04T01:09:31.570Z,3.03
2017-07-04T01:11:59.027Z,3.20
2017-07-04T01:14:26.483Z,2.80
2017-07-04T01:16:53.926Z,2.90
2017-07-04T01:19:21.376Z,2.97
2017-07-04T01:21:48.811Z,3.30
2017-07-04T01:24:17.027Z,3.17
2017-07-04T01:26:44.464Z,3.10
2017-07-04T01:29:11.919Z,3.77
2017-07-04T01:31:39.356Z,3.20
2017-07-04T01:34:07.568Z,2.93
2017-07-04T01:36:35.023Z,2.73
2017-07-04T01:39:02.462Z,2.47
2017-07-04T01:41:29.911Z,3.13
2017-07-04T01:43:57.352Z,3.33
2017-07-04T01:46:25.570Z,3.10
2017-07-04T01:48:53.007Z,3.60
2017-07-04T01:51:20.451Z,4.30
2017-07-04T01:53:47.892Z,3.07
2017-07-04T01:56:16.111Z,3.53
2017-07-04T01:58:43.556Z,3.20
2017-07-04T02:01:10.990Z,3.10
2017-07-04T02:03:38.442Z,3.40
2017-07-04T02:06:06.647Z,3.37
2017-07-04T02:08:34.102Z,3.07
2017-07-04T02:11:01.548Z,2.93
2017-07-04T02:13:28.995Z,3.63
2017-07-04T02:15:56.443Z,3.70
2017-07-04T02:18:24.655Z,3.93
2017-07-04T02:20:52.099Z,3.17
2017-07-04T02:23:19.544Z,3.20
2017-07-04T02:25:48.549Z,4.00
2017-07-04T02:28:16.006Z,3.57
2017-07-04T02:30:43.468Z,3.43
2017-07-04T02:33:10.913Z,3.30
2017-07-04T02:35:38.346Z,3.80
2017-07-04T02:38:05.790Z,3.20
2017-07-04T02:40:34.002Z,3.43
2017-07-04T02:43:01.459Z,3.30
2017-07-04T02:45:28.902Z,3.37
2017-07-04T02:47:56.351Z,3.87
2017-07-04T02:50:23.791Z,3.00
2017-07-04T02:52:52.003Z,3.10
2017-07-04T02:55:19.459Z,3.50
2017-07-04T02:57:46.894Z,3.43
2017-07-04T03:00:14.338Z,3.97
2017-07-04T03:02:42.543Z,3.57
2017-07-04T03:05:09.999Z,3.50
2017-07-04T03:07:38.143Z,3.17
2017-07-04T03:10:06.355Z,3.30
2017-07-04T03:12:33.807Z,3.30
2017-07-04T03:15:01.262Z,3.23
2017-07-04T03:17:28.708Z,3.47
2017-07-04T03:19:56.151Z,3.60
2017-07-04T03:22:23.592Z,3.83
2017-07-04T03:24:51.801Z,3.30
2017-07-04T03:27:19.254Z,3.90
2017-07-04T03:29:46.700Z,3.60
2017-07-04T03:32:14.148Z,2.83
2017-07-04T03:34:41.590Z,3.43
2017-07-04T03:37:09.807Z,3.07
2017-07-04T03:39:37.255Z,3.07
2017-07-04T03:42:04.712Z,3.80
2017-07-04T03:44:32.154Z,3.30
2017-07-04T03:46:59.604Z,4.30
2017-07-04T03:49:27.046Z,3.33
2017-07-04T03:51:55.259Z,3.23
2017-07-04T03:54:22.712Z,3.43
2017-07-04T03:56:50.166Z,3.40
2017-07-04T03:59:17.624Z,3.30
2017-07-04T04:01:45.064Z,3.00
2017-07-04T04:04:12.507Z,3.70
2017-07-04T04:06:39.946Z,3.10
2017-07-04T04:09:08.167Z,3.40
2017-07-04T04:11:35.602Z,3.27
2017-07-04T04:14:03.043Z,3.50
2017-07-04T04:16:30.502Z,3.30
2017-07-04T04:18:58.703Z,3.27
2017-07-04T04:21:26.163Z,4.10
2017-07-04T04:23:53.611Z,3.13
2017-07-04T04:26:21.055Z,3.00
2017-07-04T04:28:48.499Z,3.10
2017-07-04T04:31:15.946Z,4.07
2017-07-04T04:33:44.158Z,3.10
2017-07-04T04:36:11.590Z,3.30
2017-07-04T04:38:39.043Z,3.43
2017-07-04T04:41:06.488Z,3.50
2017-07-04T04:43:33.999Z,3.70
2017-07-04T04:46:01.447Z,3.53
2017-07-04T04:48:28.900Z,3.97
2017-07-04T04:50:56.339Z,3.40
2017-07-04T04:53:23.808Z,3.60
2017-07-04T04:55:51.322Z,3.70
2017-07-04T04:58:18.778Z,3.50
2017-07-04T05:00:46.999Z,3.23
2017-07-04T05:03:14.449Z,3.57
2017-07-04T05:05:41.908Z,3.63
2017-07-04T05:08:09.351Z,3.40
2017-07-04T05:10:36.800Z,4.03
2017-07-04T05:13:04.238Z,3.57
2017-07-04T05:15:32.453Z,3.50
2017-07-04T05:17:59.894Z,4.17
2017-07-04T05:20:27.362Z,3.63
2017-07-04T05:22:54.807Z,4.20
2017-07-04T05:25:22.248Z,3.47
2017-07-04T05:27:49.694Z,4.73
2017-07-04T05:30:17.907Z,3.80
2017-07-04T05:32:45.360Z,3.73
2017-07-04T05:35:12.795Z,4.63
2017-07-04T05:37:40.247Z,3.90
2017-07-04T05:40:07.684Z,3.83
2017-07-04T05:42:35.903Z,3.77
2017-07-04T05:45:03.358Z,4.57
2017-07-04T05:47:31.139Z,4.20
2017-07-04T05:49:58.582Z,4.30
2017-07-04T05:52:26.023Z,4.40
2017-07-04T05:54:53.478Z,4.33
2017-07-04T05:57:20.926Z,3.97
2017-07-04T05:59:48.370Z,4.77
2017-07-04T06:02:16.580Z,4.80
2017-07-04T06:04:44.035Z,5.40
2017-07-04T06:07:11.471Z,4.60
2017-07-04T06:09:38.946Z,4.00
2017-07-04T06:12:06.398Z,4.43
2017-07-04T06:14:33.882Z,4.70
2017-07-04T06:17:01.343Z,4.47
2017-07-04T06:19:28.791Z,3.83
2017-07-04T06:21:56.243Z,4.37
2017-07-04T06:24:23.687Z,4.50
2017-07-04T06:26:51.143Z,4.27
2017-07-04T06:29:18.601Z,4.10
2017-07-04T06:31:46.079Z,3.77
2017-07-04T06:34:13.523Z,4.30
2017-07-04T06:36:40.967Z,3.70
2017-07-04T06:39:08.423Z,4.20
2017-07-04T06:41:35.876Z,4.57
2017-07-04T06:44:03.319Z,3.93
2017-07-04T06:46:30.763Z,4.23
2017-07-04T06:48:58.211Z,3.40
2017-07-04T06:51:26.424Z,3.90
2017-07-04T06:53:53.891Z,3.97
2017-07-04T06:56:21.330Z,3.53
2017-07-04T06:58:48.780Z,3.80
2017-07-04T07:01:16.226Z,3.60
2017-07-04T07:03:43.670Z,3.33
2017-07-04T07:06:11.179Z,3.50
2017-07-04T07:08:38.627Z,4.27
2017-07-04T07:11:06.077Z,3.50
2017-07-04T07:13:33.528Z,3.33
2017-07-04T07:16:00.983Z,4.10
2017-07-04T07:18:28.434Z,3.10
2017-07-04T07:20:55.899Z,3.57
2017-07-04T07:23:23.360Z,3.40
2017-07-04T07:25:50.807Z,4.40
2017-07-04T07:28:18.267Z,3.90
2017-07-04T07:30:45.709Z,3.73
2017-07-04T07:33:13.164Z,3.70
2017-07-04T07:35:40.605Z,3.97
2017-07-04T07:38:08.057Z,4.20
2017-07-04T07:40:36.279Z,4.27
2017-07-04T07:43:03.728Z,4.23
2017-07-04T07:45:31.175Z,4.20
2017-07-04T07:47:58.652Z,4.57
2017-07-04T07:50:26.087Z,3.53
2017-07-04T07:52:53.531Z,3.80
2017-07-04T07:55:20.976Z,3.70
2017-07-04T07:57:48.415Z,3.57
2017-07-04T08:00:16.632Z,3.13
2017-07-04T08:02:44.089Z,3.50
2017-07-04T08:05:11.544Z,3.87
2017-07-04T08:07:39.000Z,3.60
2017-07-04T08:10:06.455Z,3.23
2017-07-04T08:12:33.911Z,4.00
2017-07-04T08:15:01.391Z,3.40
2017-07-04T08:17:28.838Z,3.70
2017-07-04T08:19:56.283Z,3.90
2017-07-04T08:22:23.737Z,3.50
2017-07-04T08:24:51.189Z,4.10
2017-07-04T08:27:18.628Z,4.87
2017-07-04T08:29:46.071Z,3.87
2017-07-04T08:32:14.292Z,3.90
2017-07-04T08:34:41.734Z,4.50
2017-07-04T08:37:09.207Z,4.50
2017-07-04T08:39:37.056Z,4.80
2017-07-04T08:42:04.499Z,4.60
2017-07-04T08:44:31.934Z,4.90
2017-07-04T08:46:59.405Z,4.63
2017-07-04T08:49:26.852Z,4.93
2017-07-04T08:51:54.292Z,5.10
2017-07-04T08:54:22.508Z,5.07
2017-07-04T08:56:49.946Z,4.93
2017-07-04T08:59:17.396Z,4.60
2017-07-04T09:01:44.840Z,4.87
2017-07-04T09:04:13.055Z,5.17
2017-07-04T09:06:40.507Z,4.50
2017-07-04T09:09:07.958Z,4.60
2017-07-04T09:11:35.395Z,4.90
2017-07-04T09:14:02.844Z,4.53
2017-07-04T09:16:30.287Z,5.27
2017-07-04T09:18:57.755Z,4.80
2017-07-04T09:21:25.975Z,5.17
2017-07-04T09:23:53.419Z,5.03
2017-07-04T09:26:20.873Z,4.83
2017-07-04T09:28:48.327Z,5.00
2017-07-04T09:31:15.824Z,4.53
2017-07-04T09:33:43.258Z,5.13
2017-07-04T09:36:10.711Z,4.03
2017-07-04T09:38:38.154Z,4.10
2017-07-04T09:41:05.611Z,4.67
2017-07-04T09:43:33.050Z,4.40
2017-07-04T09:46:00.522Z,4.33
2017-07-04T09:48:27.966Z,4.60
2017-07-04T09:50:55.407Z,4.83
2017-07-04T09:53:22.850Z,5.40
2017-07-04T09:55:51.063Z,4.67
2017-07-04T09:58:18.524Z,4.47
2017-07-04T10:00:45.965Z,4.40
2017-07-04T10:03:13.428Z,4.43
2017-07-04T10:05:40.867Z,3.67
2017-07-04T10:08:08.332Z,3.63
2017-07-04T10:10:35.774Z,4.50
2017-07-04T10:13:03.243Z,4.00
2017-07-04T10:15:30.689Z,3.77
2017-07-04T10:17:58.131Z,3.40
2017-07-04T10:20:26.347Z,3.30
2017-07-04T10:22:53.786Z,3.67
2017-07-04T10:25:21.231Z,3.63
2017-07-04T10:27:48.680Z,3.63
2017-07-04T10:30:16.887Z,3.40
2017-07-04T10:32:44.327Z,2.93
2017-07-04T10:35:11.799Z,2.80
2017-07-04T10:37:39.252Z,3.30
2017-07-04T10:40:06.700Z,3.40
2017-07-04T10:42:34.147Z,4.00
2017-07-04T10:45:01.588Z,3.10
2017-07-04T10:47:29.800Z,2.80
2017-07-04T10:49:57.243Z,3.80
2017-07-04T10:52:24.682Z,3.73
2017-07-04T10:54:52.130Z,3.00
2017-07-04T10:57:20.343Z,3.00
2017-07-04T10:59:47.794Z,3.00
2017-07-04T11:02:15.250Z,3.60
2017-07-04T11:04:42.701Z,3.30
2017-07-04T11:07:10.162Z,3.30
2017-07-04T11:09:37.606Z,3.30
2017-07-04T11:12:05.055Z,3.80
2017-07-04T11:14:32.502Z,3.37
2017-07-04T11:16:59.940Z,3.07
2017-07-04T11:19:28.162Z,3.37
2017-07-04T11:21:55.602Z,4.20
2017-07-04T11:24:23.047Z,3.50
2017-07-04T11:26:50.487Z,2.70
2017-07-04T11:29:18.703Z,2.63
2017-07-04T11:31:46.153Z,3.37
2017-07-04T11:34:13.582Z,3.27
2017-07-04T11:36:41.027Z,3.10
2017-07-04T11:39:09.278Z,2.77
2017-07-04T11:41:36.744Z,3.30
2017-07-04T11:44:04.183Z,2.87
2017-07-04T11:46:31.639Z,2.93
2017-07-04T11:48:59.083Z,3.30
2017-07-04T11:51:26.551Z,3.33
2017-07-04T11:53:54.006Z,3.20
2017-07-04T11:56:21.440Z,3.03
2017-07-04T11:58:48.901Z,2.80
2017-07-04T12:01:16.342Z,2.90
2017-07-04T12:03:43.785Z,3.33
2017-07-04T12:06:11.227Z,3.33
2017-07-04T12:08:38.676Z,3.30
2017-07-04T12:11:06.879Z,3.43
2017-07-04T12:13:34.351Z,3.27
2017-07-04T12:16:01.807Z,3.13
2017-07-04T12:18:29.245Z,3.23
2017-07-04T12:20:56.695Z,3.13
2017-07-04T12:23:24.135Z,3.20
2017-07-04T12:25:52.354Z,3.33
2017-07-04T12:28:19.803Z,3.00
2017-07-04T12:30:47.262Z,3.13
2017-07-04T12:33:14.710Z,3.47
2017-07-04T12:35:42.159Z,3.03
2017-07-04T12:38:09.599Z,3.07
2017-07-04T12:40:37.047Z,3.17
2017-07-04T12:43:05.258Z,3.30
2017-07-04T12:45:32.715Z,3.60
2017-07-04T12:48:00.171Z,3.27
2017-07-04T12:50:27.627Z,3.27
2017-07-04T12:52:55.084Z,3.30
2017-07-04T12:55:22.523Z,3.13
2017-07-04T12:57:49.967Z,3.20
2017-07-04T13:00:17.407Z,3.10
2017-07-04T13:02:45.631Z,2.77
2017-07-04T13:05:13.083Z,3.80
2017-07-04T13:07:40.552Z,3.37
2017-07-04T13:10:07.995Z,3.43
2017-07-04T13:12:35.439Z,2.90
2017-07-04T13:15:02.891Z,3.27
2017-07-04T13:17:30.332Z,3.60
2017-07-04T13:19:57.784Z,3.30
2017-07-04T13:22:25.994Z,3.43
2017-07-04T13:24:53.449Z,3.40
2017-07-04T13:27:20.892Z,3.23
2017-07-04T13:29:48.341Z,3.50
2017-07-04T13:32:15.782Z,3.47
2017-07-04T13:34:44.011Z,3.40
2017-07-04T13:37:11.447Z,3.00
2017-07-04T13:39:38.892Z,3.83
2017-07-04T13:42:06.340Z,3.03
2017-07-04T13:44:33.779Z,3.80
2017-07-04T13:47:01.991Z,3.17
2017-07-04T13:49:29.444Z,3.10
2017-07-04T13:51:56.900Z,3.30
2017-07-04T13:54:24.345Z,3.80
2017-07-04T13:56:51.791Z,3.30
2017-07-04T13:59:19.231Z,3.20
2017-07-04T14:01:47.447Z,2.90
2017-07-04T14:04:14.898Z,3.00
2017-07-04T14:06:42.350Z,3.67
2017-07-04T14:09:09.788Z,3.10
2017-07-04T14:11:37.227Z,3.63
2017-07-04T14:14:05.444Z,3.00
2017-07-04T14:16:32.923Z,3.17
2017-07-04T14:19:00.394Z,3.60
2017-07-04T14:21:27.843Z,3.47
2017-07-04T14:23:55.287Z,3.23
2017-07-04T14:26:22.730Z,3.23
2017-07-04T14:28:50.179Z,3.00
2017-07-04T14:31:17.619Z,3.30
2017-07-04T14:33:45.078Z,3.33
2017-07-04T14:36:12.521Z,3.03
2017-07-04T14:38:39.992Z,2.90
2017-07-04T14:41:07.436Z,3.30
2017-07-04T14:43:34.876Z,3.03
2017-07-04T14:46:03.091Z,2.80
2017-07-04T14:48:30.543Z,3.40
2017-07-04T14:50:58.003Z,3.03
2017-07-04T14:53:25.452Z,2.90
2017-07-04T14:55:52.896Z,3.23
2017-07-04T14:58:20.336Z,3.47
2017-07-04T15:00:48.560Z,3.43
2017-07-04T15:03:15.999Z,2.90
2017-07-04T15:05:43.460Z,3.43
2017-07-04T15:08:10.912Z,3.07
2017-07-04T15:10:38.403Z,2.80
2017-07-04T15:13:05.846Z,3.53
2017-07-04T15:15:33.290Z,2.97
2017-07-04T15:18:00.787Z,3.20
2017-07-04T15:20:28.233Z,3.10
2017-07-04T15:22:55.683Z,3.10
2017-07-04T15:25:23.127Z,3.10
2017-07-04T15:27:50.579Z,3.20
2017-07-04T15:30:18.043Z,2.97
2017-07-04T15:32:45.489Z,3.30
2017-07-04T15:35:12.933Z,3.30
2017-07-04T15:37:40.403Z,2.90
2017-07-04T15:40:07.901Z,3.40
2017-07-04T15:42:35.376Z,3.00
2017-07-04T15:45:02.818Z,3.30
2017-07-04T15:47:31.032Z,3.20
2017-07-04T15:49:58.486Z,3.50
2017-07-04T15:52:25.932Z,2.80
2017-07-04T15:54:53.388Z,3.40
2017-07-04T15:57:20.822Z,3.57
2017-07-04T15:59:49.040Z,3.17
2017-07-04T16:02:16.488Z,3.57
2017-07-04T16:04:43.956Z,3.40
2017-07-04T16:07:11.400Z,3.10
2017-07-04T16:09:38.840Z,3.40
2017-07-04T16:12:06.282Z,3.50
2017-07-04T16:14:33.718Z,3.20
2017-07-04T16:17:01.961Z,3.00
2017-07-04T16:19:29.396Z,3.67
2017-07-04T16:21:56.851Z,3.30
2017-07-04T16:24:24.295Z,2.80
2017-07-04T16:26:51.744Z,3.60
2017-07-04T16:29:19.182Z,3.53
2017-07-04T16:31:47.395Z,3.13
2017-07-04T16:34:14.839Z,3.60
2017-07-04T16:36:42.308Z,2.97
2017-07-04T16:39:09.744Z,3.23
2017-07-04T16:41:37.184Z,3.10
2017-07-04T16:44:04.632Z,3.23
2017-07-04T16:46:32.852Z,3.50
2017-07-04T16:49:00.311Z,2.93
2017-07-04T16:51:27.763Z,3.67
2017-07-04T16:53:55.218Z,3.67
2017-07-04T16:56:22.669Z,3.27
2017-07-04T16:58:50.118Z,3.10
2017-07-04T17:01:17.562Z,3.57
2017-07-04T17:03:45.045Z,3.53
2017-07-04T17:06:12.497Z,3.77
2017-07-04T17:08:40.469Z,3.83
2017-07-04T17:11:07.924Z,3.47
2017-07-04T17:13:35.367Z,3.40
2017-07-04T17:16:02.812Z,3.43
2017-07-04T17:18:30.260Z,4.10
2017-07-04T17:20:58.468Z,3.83
2017-07-04T17:23:25.908Z,3.80
2017-07-04T17:25:53.357Z,3.50
2017-07-04T17:28:20.809Z,3.60
2017-07-04T17:30:48.255Z,4.03
2017-07-04T17:33:16.467Z,3.23
2017-07-04T17:35:43.932Z,3.80
2017-07-04T17:38:11.379Z,4.40
2017-07-04T17:40:38.831Z,4.40
2017-07-04T17:43:06.291Z,3.90
2017-07-04T17:45:33.730Z,3.50
2017-07-04T17:48:01.182Z,3.87
2017-07-04T17:50:28.625Z,3.67
2017-07-04T17:52:56.844Z,3.27
2017-07-04T17:55:24.287Z,3.70
2017-07-04T17:57:51.744Z,3.60
2017-07-04T18:00:19.198Z,4.30
2017-07-04T18:02:46.659Z,3.40
2017-07-04T18:05:14.112Z,4.00
2017-07-04T18:07:41.556Z,4.00
2017-07-04T18:10:09.002Z,4.53
2017-07-04T18:12:36.439Z,3.90
2017-07-04T18:15:04.660Z,4.10
2017-07-04T18:17:32.113Z,4.30
2017-07-04T18:19:59.572Z,4.17
2017-07-04T18:22:27.011Z,4.83
2017-07-04T18:24:54.479Z,4.07
2017-07-04T18:27:22.111Z,4.77
2017-07-04T18:29:49.576Z,4.30
2017-07-04T18:32:17.040Z,4.53
2017-07-04T18:34:44.486Z,4.00
2017-07-04T18:37:11.931Z,4.07
2017-07-04T18:39:40.143Z,3.90
2017-07-04T18:42:07.592Z,4.20
2017-07-04T18:44:35.275Z,3.80
2017-07-04T18:47:02.739Z,3.97
2017-07-04T18:49:30.183Z,4.70
2017-07-04T18:51:57.692Z,4.60
2017-07-04T18:54:25.971Z,4.40
2017-07-04T18:56:53.439Z,4.60
2017-07-04T18:59:21.839Z,4.70
2017-07-04T19:01:49.309Z,4.30
2017-07-04T19:04:16.765Z,4.20
2017-07-04T19:06:44.231Z,4.80
2017-07-04T19:09:11.697Z,5.00
2017-07-04T19:11:39.131Z,5.03
2017-07-04T19:14:06.591Z,4.47
2017-07-04T19:16:34.043Z,4.70
2017-07-04T19:19:01.507Z,4.67
2017-07-04T19:21:28.943Z,4.80
2017-07-04T19:23:56.395Z,4.60
2017-07-04T19:26:23.839Z,4.60
2017-07-04T19:28:52.089Z,4.80
2017-07-04T19:31:19.529Z,5.47
2017-07-04T19:33:46.968Z,5.60
2017-07-04T19:36:14.416Z,5.00
2017-07-04T19:38:41.869Z,5.30
2017-07-04T19:41:09.323Z,4.67
2017-07-04T19:43:36.774Z,5.03
2017-07-04T19:46:04.218Z,4.40
2017-07-04T19:48:31.656Z,5.20
2017-07-04T19:50:59.875Z,5.43
2017-07-04T19:53:27.328Z,5.33
2017-07-04T19:55:54.784Z,5.50
2017-07-04T19:58:22.228Z,5.33
2017-07-04T20:00:49.685Z,5.47
2017-07-04T20:03:17.209Z,5.00
2017-07-04T20:05:45.424Z,5.27
2017-07-04T20:08:12.883Z,5.00
2017-07-04T20:10:40.324Z,5.60
2017-07-04T20:13:07.768Z,5.20
2017-07-04T20:15:35.324Z,5.13
2017-07-04T20:18:03.528Z,4.77
2017-07-04T20:20:30.979Z,4.90
2017-07-04T20:22:58.446Z,4.83
2017-07-04T20:25:25.896Z,4.53
2017-07-04T20:27:53.343Z,4.47
2017-07-04T20:30:20.795Z,5.00
2017-07-04T20:32:48.239Z,4.83
2017-07-04T20:35:15.702Z,4.80
2017-07-04T20:37:43.138Z,4.73
2017-07-04T20:40:10.582Z,5.33
2017-07-04T20:42:38.796Z,5.40
2017-07-04T20:45:06.248Z,5.27
2017-07-04T20:47:33.699Z,4.67
2017-07-04T20:50:01.135Z,5.10
2017-07-04T20:52:28.593Z,4.97
2017-07-04T20:54:56.027Z,4.97
2017-07-04T20:57:24.247Z,4.97
2017-07-04T20:59:51.704Z,5.23
2017-07-04T21:02:19.216Z,5.13
2017-07-04T21:04:46.640Z,5.00
2017-07-04T21:07:14.091Z,5.23
2017-07-04T21:09:41.526Z,5.97
2017-07-04T21:12:08.988Z,6.20
2017-07-04T21:14:36.434Z,6.23
2017-07-04T21:17:03.896Z,5.20
2017-07-04T21:19:31.335Z,4.43
2017-07-04T21:21:58.775Z,4.80
2017-07-04T21:24:26.987Z,4.90
2017-07-04T21:26:54.439Z,5.23
2017-07-04T21:29:21.895Z,4.87
2017-07-04T21:31:49.347Z,4.90
2017-07-04T21:34:16.791Z,5.30
2017-07-04T21:36:44.227Z,5.97
2017-07-04T21:39:12.439Z,4.97
2017-07-04T21:41:39.881Z,5.13
2017-07-04T21:44:07.327Z,4.70
2017-07-04T21:46:34.772Z,4.97
2017-07-04T21:49:02.233Z,5.17
2017-07-04T21:51:29.671Z,5.50
2017-07-04T21:53:57.879Z,5.20
2017-07-04T21:56:25.327Z,5.00
2017-07-04T21:58:52.768Z,5.10
2017-07-04T22:01:20.975Z,5.27
2017-07-04T22:03:48.422Z,5.27
2017-07-04T22:06:15.872Z,4.67
2017-07-04T22:08:43.303Z,5.03
2017-07-04T22:11:11.520Z,5.20
2017-07-04T22:13:38.963Z,5.47
2017-07-04T22:16:06.432Z,5.20
2017-07-04T22:18:33.875Z,4.77
2017-07-04T22:21:01.316Z,5.47
2017-07-04T22:23:28.762Z,4.97
2017-07-04T22:25:56.978Z,5.23
2017-07-04T22:28:24.432Z,4.90
2017-07-04T22:30:51.871Z,4.90
2017-07-04T22:33:19.320Z,4.80
2017-07-04T22:35:46.759Z,4.80
2017-07-04T22:38:14.974Z,4.77
2017-07-04T22:40:42.415Z,4.90
2017-07-04T22:43:09.855Z,4.60
2017-07-04T22:45:37.303Z,5.03
2017-07-04T22:48:05.516Z,4.97
2017-07-04T22:50:32.974Z,4.70
2017-07-04T22:53:00.402Z,4.67
2017-07-04T22:55:27.856Z,5.07
2017-07-04T22:57:55.295Z,4.87
2017-07-04T23:00:23.512Z,5.27
2017-07-04T23:02:50.962Z,4.30
2017-07-04T23:05:18.423Z,5.33
2017-07-04T23:07:45.875Z,4.60
2017-07-04T23:10:13.311Z,4.30
2017-07-04T23:12:40.759Z,4.60
2017-07-04T23:15:08.967Z,4.60
2017-07-04T23:17:36.825Z,5.17
2017-07-04T23:20:04.264Z,5.33
2017-07-04T23:22:31.710Z,4.97
2017-07-04T23:24:59.156Z,4.50
2017-07-04T23:27:27.371Z,4.40
2017-07-04T23:29:54.828Z,4.80
2017-07-04T23:32:22.302Z,4.80
2017-07-04T23:34:49.741Z,4.80
2017-07-04T23:37:17.191Z,4.73
2017-07-04T23:39:44.649Z,4.67
2017-07-04T23:42:12.086Z,4.60
2017-07-04T23:44:39.528Z,4.47
2017-07-04T23:47:06.979Z,4.57
2017-07-04T23:49:35.200Z,5.00
2017-07-04T23:52:02.640Z,4.60
2017-07-04T23:54:30.087Z,4.30
2017-07-04T23:56:57.528Z,4.50
2017-07-04T23:59:25.763Z,5.00
